createdAt,value
2019-02-28T00:01:47.221Z,6.00
2019-02-28T00:04:17.940Z,6.00
2019-02-28T00:06:48.435Z,6.00
2019-02-28T00:09:18.927Z,6.00
2019-02-28T00:11:49.433Z,5.90
2019-02-28T00:14:19.989Z,5.90
2019-02-28T00:16:50.467Z,5.80
2019-02-28T00:19:23.634Z,5.80
2019-02-28T00:21:53.134Z,5.70
2019-02-28T00:24:23.654Z,5.60
2019-02-28T00:26:54.111Z,5.60
2019-02-28T00:29:24.667Z,5.60
2019-02-28T00:31:55.157Z,5.60
2019-02-28T00:34:25.647Z,5.40
2019-02-28T00:36:56.077Z,5.30
2019-02-28T00:39:26.593Z,5.10
2019-02-28T00:41:57.168Z,4.90
2019-02-28T00:44:30.403Z,4.70
2019-02-28T00:46:59.861Z,4.50
2019-02-28T00:49:30.312Z,4.40
2019-02-28T00:52:01.625Z,4.20
2019-02-28T00:54:32.948Z,4.00
2019-02-28T00:57:03.648Z,3.90
2019-02-28T00:59:34.112Z,3.80
2019-02-28T01:02:04.619Z,3.70
2019-02-28T01:04:35.054Z,3.60
2019-02-28T01:07:05.645Z,3.60
2019-02-28T01:09:36.139Z,3.50
2019-02-28T01:12:06.673Z,3.40
2019-02-28T01:14:37.249Z,3.40
2019-02-28T01:17:07.705Z,3.30
2019-02-28T01:19:41.349Z,3.20
2019-02-28T01:22:10.275Z,3.10
2019-02-28T01:24:40.715Z,3.10
2019-02-28T01:27:11.219Z,3.00
2019-02-28T01:29:41.661Z,3.00
2019-02-28T01:32:15.310Z,2.90
2019-02-28T01:34:44.243Z,2.90
2019-02-28T01:37:14.737Z,2.80
2019-02-28T01:39:45.182Z,2.80
2019-02-28T01:42:19.559Z,2.70
2019-02-28T01:44:47.839Z,2.70
2019-02-28T01:47:19.916Z,2.70
2019-02-28T01:49:50.606Z,2.60
2019-02-28T01:52:21.089Z,2.60
2019-02-28T01:54:51.648Z,2.60
2019-02-28T01:57:22.045Z,2.50
2019-02-28T01:59:53.105Z,2.50
2019-02-28T02:02:24.139Z,2.40
2019-02-28T02:04:55.001Z,2.50
2019-02-28T02:07:25.516Z,2.50
2019-02-28T02:09:56.641Z,2.50
2019-02-28T02:12:31.288Z,2.50
2019-02-28T02:14:59.340Z,2.50
2019-02-28T02:17:32.258Z,2.50
2019-02-28T02:20:01.911Z,2.40
2019-02-28T02:22:32.749Z,2.40
2019-02-28T02:25:04.237Z,2.50
2019-02-28T02:27:34.790Z,2.50
2019-02-28T02:30:13.549Z,2.50
2019-02-28T02:32:39.815Z,2.50
2019-02-28T02:35:10.513Z,2.50
2019-02-28T02:37:40.918Z,2.50
2019-02-28T02:40:11.946Z,2.60
2019-02-28T02:42:47.227Z,2.60
2019-02-28T02:45:14.669Z,2.50
2019-02-28T02:47:45.220Z,2.50
2019-02-28T02:50:15.817Z,2.50
2019-02-28T02:52:46.285Z,2.50
2019-02-28T02:55:16.729Z,2.40
2019-02-28T02:57:50.915Z,2.40
2019-02-28T03:00:19.807Z,2.40
2019-02-28T03:02:50.347Z,2.50
2019-02-28T03:05:20.827Z,2.50
2019-02-28T03:07:51.370Z,2.60
2019-02-28T03:10:21.928Z,2.60
2019-02-28T03:12:52.517Z,2.60
2019-02-28T03:15:26.878Z,2.50
2019-02-28T03:17:55.041Z,2.50
2019-02-28T03:20:25.538Z,2.50
2019-02-28T03:22:56.121Z,2.50
2019-02-28T03:25:28.229Z,2.50
2019-02-28T03:27:58.832Z,2.50
2019-02-28T03:30:32.874Z,2.50
2019-02-28T03:33:02.050Z,2.50
2019-02-28T03:35:43.440Z,2.50
2019-02-28T03:38:10.482Z,2.50
2019-02-28T03:40:40.264Z,2.50
2019-02-28T03:43:09.174Z,2.40
2019-02-28T03:45:39.616Z,2.40
2019-02-28T03:48:10.162Z,2.40
2019-02-28T03:50:40.571Z,2.40
2019-02-28T03:53:10.996Z,2.40
2019-02-28T03:55:41.645Z,2.30
2019-02-28T03:58:12.358Z,2.30
2019-02-28T04:00:42.993Z,2.30
2019-02-28T04:03:13.419Z,2.30
2019-02-28T04:05:44.000Z,2.30
2019-02-28T04:08:14.548Z,2.30
2019-02-28T04:10:45.124Z,2.40
2019-02-28T04:13:19.229Z,2.40
2019-02-28T04:16:07.735Z,2.50
2019-02-28T04:18:20.197Z,2.50
2019-02-28T04:20:50.667Z,2.50
2019-02-28T04:23:21.130Z,2.60
2019-02-28T04:25:51.554Z,2.60
2019-02-28T04:28:22.109Z,2.60
2019-02-28T04:30:52.529Z,2.60
2019-02-28T04:33:23.081Z,2.60
2019-02-28T04:35:56.926Z,2.60
2019-02-28T04:38:25.570Z,2.50
2019-02-28T04:40:58.834Z,2.50
2019-02-28T04:43:28.215Z,2.50
2019-02-28T04:45:58.714Z,2.50
2019-02-28T04:48:29.193Z,2.60
2019-02-28T04:51:02.271Z,2.60
2019-02-28T04:53:31.683Z,2.50
2019-02-28T04:56:02.197Z,2.50
2019-02-28T04:58:32.656Z,2.50
2019-02-28T05:01:03.127Z,2.50
2019-02-28T05:03:33.635Z,2.60
2019-02-28T05:06:04.144Z,2.70
2019-02-28T05:08:38.596Z,3.10
2019-02-28T05:11:07.107Z,3.40
2019-02-28T05:13:37.578Z,3.60
2019-02-28T05:16:09.340Z,3.90
2019-02-28T05:18:40.506Z,4.00
2019-02-28T05:21:11.043Z,4.10
2019-02-28T05:23:41.659Z,4.20
2019-02-28T05:26:12.281Z,4.20
2019-02-28T05:28:42.976Z,4.20
2019-02-28T05:31:13.628Z,4.30
2019-02-28T05:33:44.191Z,4.30
2019-02-28T05:36:14.616Z,4.40
2019-02-28T05:38:45.226Z,4.40
2019-02-28T05:41:16.044Z,4.50
2019-02-28T05:43:46.660Z,4.60
2019-02-28T05:46:20.346Z,4.70
2019-02-28T05:48:49.427Z,4.90
2019-02-28T05:51:20.823Z,5.00
2019-02-28T05:53:51.238Z,5.20
2019-02-28T05:56:21.664Z,5.30
2019-02-28T05:58:52.513Z,5.40
2019-02-28T06:01:23.660Z,5.50
2019-02-28T06:03:54.282Z,5.70
2019-02-28T06:06:24.896Z,5.90
2019-02-28T06:08:55.364Z,6.00
2019-02-28T06:11:25.883Z,6.10
2019-02-28T06:13:56.265Z,6.20
2019-02-28T06:16:28.191Z,6.30
2019-02-28T06:18:58.688Z,6.40
2019-02-28T06:21:29.283Z,6.50
2019-02-28T06:23:59.778Z,6.60
2019-02-28T06:26:31.902Z,6.70
2019-02-28T06:29:04.971Z,6.70
2019-02-28T06:31:34.856Z,6.80
2019-02-28T06:34:05.631Z,6.80
2019-02-28T06:36:37.529Z,6.90
2019-02-28T06:39:08.496Z,7.00
2019-02-28T06:41:39.840Z,7.10
2019-02-28T06:44:11.203Z,7.20
2019-02-28T06:46:42.818Z,7.30
2019-02-28T06:49:14.931Z,7.50
2019-02-28T06:51:48.457Z,7.50
2019-02-28T06:54:17.624Z,7.70
2019-02-28T06:56:48.052Z,7.80
2019-02-28T06:59:18.579Z,7.90
2019-02-28T07:01:49.067Z,8.00
2019-02-28T07:04:19.530Z,8.20
2019-02-28T07:06:50.058Z,8.30
2019-02-28T07:09:20.558Z,8.40
2019-02-28T07:11:51.282Z,8.60
2019-02-28T07:14:23.288Z,8.60
2019-02-28T07:16:53.853Z,8.80
2019-02-28T07:19:26.302Z,8.90
2019-02-28T07:21:56.518Z,9.00
2019-02-28T07:24:26.998Z,9.10
2019-02-28T07:26:58.627Z,9.20
2019-02-28T07:29:29.172Z,9.30
2019-02-28T07:32:01.319Z,9.40
2019-02-28T07:34:32.907Z,9.50
2019-02-28T07:37:03.563Z,9.50
2019-02-28T07:39:36.500Z,9.60
2019-02-28T07:42:06.216Z,9.70
2019-02-28T07:44:38.059Z,9.80
2019-02-28T07:47:08.602Z,9.90
2019-02-28T07:49:40.178Z,9.90
2019-02-28T07:52:10.698Z,10.00
2019-02-28T07:54:41.204Z,10.10
2019-02-28T07:57:17.000Z,10.20
2019-02-28T07:59:44.880Z,10.30
2019-02-28T08:02:15.560Z,10.40
2019-02-28T08:04:46.084Z,10.50
2019-02-28T08:07:16.640Z,10.60
2019-02-28T08:09:47.257Z,10.70
2019-02-28T08:12:17.794Z,10.80
2019-02-28T08:14:48.317Z,10.90
2019-02-28T08:17:18.902Z,11.10
2019-02-28T08:19:49.496Z,11.20
2019-02-28T08:22:24.366Z,11.30
2019-02-28T08:24:52.216Z,11.30
2019-02-28T08:27:25.404Z,11.50
2019-02-28T08:29:55.990Z,11.60
2019-02-28T08:32:26.752Z,11.60
2019-02-28T08:34:59.403Z,11.80
2019-02-28T08:37:29.676Z,11.70
2019-02-28T08:40:00.335Z,11.80
2019-02-28T08:42:32.482Z,11.90
2019-02-28T08:45:04.163Z,11.90
2019-02-28T08:47:34.872Z,11.90
2019-02-28T08:50:06.775Z,12.00
2019-02-28T08:52:37.596Z,12.10
2019-02-28T08:55:11.482Z,12.20
2019-02-28T08:57:42.022Z,12.20
2019-02-28T09:00:15.218Z,12.20
2019-02-28T09:02:45.848Z,12.30
2019-02-28T09:05:17.506Z,12.10
2019-02-28T09:07:51.288Z,12.20
2019-02-28T09:10:20.637Z,12.30
2019-02-28T09:12:51.533Z,12.20
2019-02-28T09:15:22.332Z,12.20
2019-02-28T09:17:58.161Z,12.30
2019-02-28T09:20:25.083Z,12.40
2019-02-28T09:23:01.780Z,12.30
2019-02-28T09:25:27.860Z,12.30
2019-02-28T09:27:58.429Z,12.20
2019-02-28T09:30:34.672Z,12.20
2019-02-28T09:33:05.328Z,12.30
2019-02-28T09:35:35.808Z,12.40
2019-02-28T09:38:09.680Z,12.30
2019-02-28T09:40:38.640Z,12.40
2019-02-28T09:43:09.162Z,12.50
2019-02-28T09:45:41.016Z,12.50
2019-02-28T09:48:11.602Z,12.40
2019-02-28T09:50:42.028Z,12.50
2019-02-28T09:53:15.490Z,12.50
2019-02-28T09:55:44.741Z,12.50
2019-02-28T09:58:15.285Z,12.70
2019-02-28T10:00:46.938Z,12.60
2019-02-28T10:03:18.647Z,12.70
2019-02-28T10:05:49.924Z,12.70
2019-02-28T10:08:21.797Z,12.70
2019-02-28T10:10:55.740Z,12.90
2019-02-28T10:13:24.708Z,12.90
2019-02-28T10:15:55.234Z,13.00
2019-02-28T10:18:25.834Z,13.00
2019-02-28T10:20:59.021Z,13.00
2019-02-28T10:23:28.472Z,12.90
2019-02-28T10:25:58.981Z,13.00
2019-02-28T10:28:29.552Z,13.00
2019-02-28T10:30:59.998Z,13.00
2019-02-28T10:33:30.556Z,12.90
2019-02-28T10:36:01.144Z,13.00
2019-02-28T10:38:32.942Z,13.10
2019-02-28T10:41:04.105Z,13.10
2019-02-28T10:43:34.709Z,12.90
2019-02-28T10:46:05.248Z,13.00
2019-02-28T10:48:41.949Z,13.10
2019-02-28T10:51:13.894Z,13.20
2019-02-28T10:53:40.301Z,13.00
2019-02-28T10:56:10.910Z,13.00
2019-02-28T10:58:41.422Z,13.10
2019-02-28T11:01:13.102Z,13.20
2019-02-28T11:03:43.680Z,13.10
2019-02-28T11:06:14.220Z,13.10
2019-02-28T11:08:47.474Z,13.10
2019-02-28T11:11:17.989Z,13.10
2019-02-28T11:13:49.589Z,13.10
2019-02-28T11:16:20.496Z,13.10
2019-02-28T11:18:52.396Z,13.10
2019-02-28T11:21:23.058Z,13.20
2019-02-28T11:23:53.741Z,13.20
2019-02-28T11:26:24.218Z,13.20
2019-02-28T11:28:54.812Z,13.20
2019-02-28T11:31:25.834Z,13.30
2019-02-28T11:33:56.402Z,13.30
2019-02-28T11:36:26.975Z,13.50
2019-02-28T11:38:57.500Z,13.40
2019-02-28T11:41:28.118Z,13.20
2019-02-28T11:43:59.146Z,13.20
2019-02-28T11:46:29.852Z,13.30
2019-02-28T11:49:00.410Z,13.40
2019-02-28T11:51:31.068Z,13.50
2019-02-28T11:54:01.658Z,13.40
2019-02-28T11:56:32.387Z,13.60
2019-02-28T11:59:03.113Z,13.60
2019-02-28T12:01:33.697Z,13.40
2019-02-28T12:04:04.448Z,13.50
2019-02-28T12:06:34.989Z,13.60
2019-02-28T12:09:07.430Z,13.80
2019-02-28T12:11:38.515Z,13.70
2019-02-28T12:14:08.978Z,13.70
2019-02-28T12:16:39.502Z,13.70
2019-02-28T12:19:12.463Z,13.70
2019-02-28T12:21:42.317Z,13.60
2019-02-28T12:24:12.836Z,13.70
2019-02-28T12:26:43.312Z,13.70
2019-02-28T12:29:13.870Z,13.60
2019-02-28T12:31:45.471Z,13.60
2019-02-28T12:34:16.025Z,13.50
2019-02-28T12:36:49.356Z,13.60
2019-02-28T12:39:18.769Z,13.80
2019-02-28T12:41:49.366Z,13.80
2019-02-28T12:44:19.822Z,14.00
2019-02-28T12:46:50.400Z,13.80
2019-02-28T12:49:22.358Z,13.90
2019-02-28T12:51:53.062Z,13.90
2019-02-28T12:54:23.722Z,13.80
2019-02-28T12:56:54.163Z,13.90
2019-02-28T12:59:24.736Z,13.80
2019-02-28T13:01:55.263Z,13.70
2019-02-28T13:04:25.817Z,13.70
2019-02-28T13:06:58.829Z,13.80
2019-02-28T13:09:30.190Z,13.90
2019-02-28T13:12:00.748Z,13.90
2019-02-28T13:14:31.228Z,13.80
2019-02-28T13:17:01.875Z,13.80
2019-02-28T13:19:32.650Z,13.80
2019-02-28T13:22:03.261Z,13.80
2019-02-28T13:24:35.385Z,13.90
2019-02-28T13:27:09.775Z,13.90
2019-02-28T13:29:38.259Z,14.00
2019-02-28T13:32:08.835Z,13.80
2019-02-28T13:34:39.430Z,14.00
2019-02-28T13:37:10.024Z,14.00
2019-02-28T13:39:40.487Z,14.10
2019-02-28T13:42:11.154Z,14.10
2019-02-28T13:44:41.645Z,14.00
2019-02-28T13:47:12.308Z,13.90
2019-02-28T13:49:42.958Z,13.90
2019-02-28T13:52:20.339Z,13.90
2019-02-28T13:54:48.079Z,13.80
2019-02-28T13:57:18.725Z,13.90
2019-02-28T13:59:49.379Z,13.90
2019-02-28T14:02:20.964Z,13.70
2019-02-28T14:04:51.495Z,13.70
2019-02-28T14:07:21.998Z,13.70
2019-02-28T14:09:56.853Z,13.70
2019-02-28T14:12:25.765Z,13.70
2019-02-28T14:14:56.417Z,13.60
2019-02-28T14:17:27.203Z,13.60
2019-02-28T14:19:57.801Z,13.60
2019-02-28T14:22:28.326Z,13.60
2019-02-28T14:24:58.979Z,13.60
2019-02-28T14:27:30.658Z,13.60
2019-02-28T14:30:01.302Z,13.60
2019-02-28T14:32:32.145Z,13.60
2019-02-28T14:35:02.723Z,13.50
2019-02-28T14:37:33.797Z,13.50
2019-02-28T14:40:05.461Z,13.50
2019-02-28T14:42:36.274Z,13.40
2019-02-28T14:45:08.261Z,13.30
2019-02-28T14:47:38.901Z,13.20
2019-02-28T14:50:10.695Z,13.30
2019-02-28T14:52:41.383Z,13.20
2019-02-28T14:55:14.272Z,13.10
2019-02-28T14:57:44.951Z,13.10
2019-02-28T15:00:17.603Z,13.00
2019-02-28T15:02:48.291Z,13.00
2019-02-28T15:05:20.475Z,12.90
2019-02-28T15:07:51.097Z,12.90
2019-02-28T15:10:21.729Z,12.90
2019-02-28T15:12:55.262Z,12.80
2019-02-28T15:15:25.742Z,12.80
2019-02-28T15:17:56.249Z,12.70
2019-02-28T15:20:31.591Z,12.60
2019-02-28T15:22:59.674Z,12.50
2019-02-28T15:25:30.593Z,12.50
2019-02-28T15:28:01.167Z,12.50
2019-02-28T15:30:33.874Z,12.40
2019-02-28T15:33:04.736Z,12.30
2019-02-28T15:35:35.404Z,12.20
2019-02-28T15:38:09.233Z,12.20
2019-02-28T15:40:40.343Z,12.20
2019-02-28T15:43:10.484Z,12.20
2019-02-28T15:45:41.215Z,12.10
2019-02-28T15:48:11.716Z,12.10
2019-02-28T15:50:42.312Z,12.00
2019-02-28T15:53:15.192Z,12.00
2019-02-28T15:55:45.686Z,11.90
2019-02-28T15:58:16.754Z,11.80
2019-02-28T16:00:48.277Z,11.80
2019-02-28T16:03:18.742Z,11.80
2019-02-28T16:05:49.227Z,11.80
2019-02-28T16:08:19.735Z,11.70
2019-02-28T16:10:53.584Z,11.70
2019-02-28T16:13:25.889Z,11.70
2019-02-28T16:15:55.092Z,11.70
2019-02-28T16:18:25.986Z,11.60
2019-02-28T16:20:56.692Z,11.60
2019-02-28T16:23:30.767Z,11.60
2019-02-28T16:25:59.832Z,11.50
2019-02-28T16:28:30.340Z,11.50
2019-02-28T16:31:03.230Z,11.50
2019-02-28T16:33:33.379Z,11.40
2019-02-28T16:36:05.667Z,11.40
2019-02-28T16:38:36.400Z,11.30
2019-02-28T16:41:07.105Z,11.30
2019-02-28T16:43:37.805Z,11.30
2019-02-28T16:46:12.362Z,11.30
2019-02-28T16:48:41.764Z,11.30
2019-02-28T16:51:12.488Z,11.20
2019-02-28T16:53:43.286Z,11.20
2019-02-28T16:56:15.815Z,11.20
2019-02-28T16:58:46.040Z,11.20
2019-02-28T17:01:17.573Z,11.20
2019-02-28T17:03:49.090Z,11.10
2019-02-28T17:06:19.733Z,11.10
2019-02-28T17:09:30.305Z,11.10
2019-02-28T17:12:23.617Z,11.00
2019-02-28T17:14:54.344Z,10.90
2019-02-28T17:17:29.979Z,10.80
2019-02-28T17:20:02.929Z,10.80
2019-02-28T17:22:33.361Z,10.70
2019-02-28T17:25:04.105Z,10.70
2019-02-28T17:27:42.490Z,10.60
2019-02-28T17:30:37.750Z,10.60
2019-02-28T17:33:09.095Z,10.50
2019-02-28T17:35:40.354Z,10.40
2019-02-28T17:38:12.003Z,10.40
2019-02-28T17:40:42.565Z,10.40
2019-02-28T17:43:13.311Z,10.40
2019-02-28T17:45:43.748Z,10.40
2019-02-28T17:48:55.430Z,10.30
2019-02-28T17:51:33.336Z,10.30
2019-02-28T17:54:59.675Z,10.20
2019-02-28T17:58:04.502Z,10.20
2019-02-28T18:01:08.260Z,10.10
2019-02-28T18:04:08.234Z,10.10
2019-02-28T18:07:26.601Z,10.10
2019-02-28T18:10:37.065Z,10.00
2019-02-28T18:13:41.939Z,9.90
2019-02-28T18:16:38.684Z,9.90
2019-02-28T18:19:59.097Z,9.80
2019-02-28T18:22:54.677Z,9.80
2019-02-28T18:25:59.596Z,9.80
2019-02-28T18:29:02.357Z,9.70
2019-02-28T18:31:32.956Z,9.70
2019-02-28T18:34:20.594Z,9.60
2019-02-28T18:36:51.343Z,9.60
2019-02-28T18:39:21.864Z,9.50
2019-02-28T18:41:52.543Z,9.50
2019-02-28T18:44:23.111Z,9.40
2019-02-28T18:46:53.680Z,9.40
2019-02-28T18:49:26.591Z,9.30
2019-02-28T18:51:56.275Z,9.30
2019-02-28T18:54:26.791Z,9.20
2019-02-28T18:56:57.484Z,9.20
2019-02-28T18:59:28.044Z,9.10
2019-02-28T19:02:36.651Z,9.10
2019-02-28T19:05:07.306Z,9.00
2019-02-28T19:07:37.821Z,9.00
2019-02-28T19:10:08.643Z,9.00
2019-02-28T19:12:39.281Z,8.90
2019-02-28T19:15:09.950Z,8.90
2019-02-28T19:17:40.477Z,8.90
2019-02-28T19:20:11.126Z,8.90
2019-02-28T19:22:41.583Z,8.80
2019-02-28T19:25:12.116Z,8.80
2019-02-28T19:27:42.783Z,8.90
2019-02-28T19:30:13.658Z,8.80
2019-02-28T19:32:44.224Z,8.80
2019-02-28T19:35:16.421Z,8.80
2019-02-28T19:37:47.067Z,8.90
2019-02-28T19:40:17.599Z,8.70
2019-02-28T19:42:48.097Z,8.70
2019-02-28T19:45:18.809Z,8.70
2019-02-28T19:47:49.368Z,8.60
2019-02-28T19:50:19.866Z,8.60
2019-02-28T19:52:50.421Z,8.60
2019-02-28T19:55:20.929Z,8.50
2019-02-28T19:57:51.559Z,8.50
2019-02-28T20:00:25.041Z,8.40
2019-02-28T20:02:55.746Z,8.50
2019-02-28T20:05:26.357Z,8.40
2019-02-28T20:07:56.955Z,8.50
2019-02-28T20:10:27.526Z,8.40
2019-02-28T20:12:58.111Z,8.40
2019-02-28T20:15:29.870Z,8.40
2019-02-28T20:18:00.453Z,8.30
2019-02-28T20:20:31.060Z,8.40
2019-02-28T20:23:01.505Z,8.30
2019-02-28T20:25:32.064Z,8.30
2019-02-28T20:28:02.599Z,8.30
2019-02-28T20:30:33.334Z,8.20
2019-02-28T20:33:04.022Z,8.30
2019-02-28T20:35:34.621Z,8.30
2019-02-28T20:38:05.137Z,8.20
2019-02-28T20:40:35.709Z,8.20
2019-02-28T20:43:06.259Z,8.20
2019-02-28T20:45:36.871Z,8.20
2019-02-28T20:48:07.299Z,8.20
2019-02-28T20:50:40.185Z,8.20
2019-02-28T20:53:11.794Z,8.10
2019-02-28T20:55:42.353Z,8.20
2019-02-28T20:58:12.817Z,8.20
2019-02-28T21:00:43.351Z,8.20
2019-02-28T21:03:13.880Z,8.30
2019-02-28T21:05:44.442Z,8.20
2019-02-28T21:08:15.014Z,8.20
2019-02-28T21:10:45.579Z,8.20
2019-02-28T21:13:17.112Z,8.20
2019-02-28T21:15:51.640Z,8.10
2019-02-28T21:18:22.160Z,8.10
2019-02-28T21:20:52.689Z,8.10
2019-02-28T21:23:23.224Z,8.00
2019-02-28T21:25:54.323Z,7.90
2019-02-28T21:28:25.051Z,7.80
2019-02-28T21:30:55.621Z,7.80
2019-02-28T21:33:26.188Z,7.60
2019-02-28T21:35:57.934Z,7.60
2019-02-28T21:38:29.673Z,7.50
2019-02-28T21:41:00.460Z,7.40
2019-02-28T21:43:31.200Z,7.30
2019-02-28T21:46:02.081Z,7.20
2019-02-28T21:48:32.717Z,7.20
2019-02-28T21:51:06.198Z,7.20
2019-02-28T21:53:36.738Z,7.10
2019-02-28T21:56:07.198Z,7.10
2019-02-28T21:58:37.714Z,7.00
2019-02-28T22:01:08.424Z,7.00
2019-02-28T22:03:39.008Z,6.90
2019-02-28T22:06:09.550Z,6.90
2019-02-28T22:08:40.133Z,6.90
2019-02-28T22:11:10.568Z,6.80
2019-02-28T22:13:41.087Z,6.80
2019-02-28T22:16:11.543Z,6.80
2019-02-28T22:18:42.070Z,6.90
2019-02-28T22:21:12.573Z,6.80
2019-02-28T22:23:43.164Z,6.80
2019-02-28T22:26:13.613Z,6.80
2019-02-28T22:28:44.100Z,6.80
2019-02-28T22:31:32.523Z,6.80
2019-02-28T22:34:34.228Z,6.80
2019-02-28T22:37:04.709Z,6.80
2019-02-28T22:39:35.133Z,6.80
2019-02-28T22:42:05.705Z,6.80
2019-02-28T22:44:36.168Z,6.80
2019-02-28T22:47:06.847Z,6.80
2019-02-28T22:49:37.337Z,6.80
2019-02-28T22:52:07.806Z,6.80
2019-02-28T22:54:38.265Z,6.80
2019-02-28T22:57:08.742Z,6.80
2019-02-28T22:59:39.202Z,6.90
2019-02-28T23:02:09.753Z,6.90
2019-02-28T23:04:40.340Z,6.90
2019-02-28T23:07:10.938Z,7.00
2019-02-28T23:09:41.428Z,6.90
2019-02-28T23:12:11.796Z,6.90
2019-02-28T23:14:42.329Z,6.90
2019-02-28T23:17:12.790Z,6.90
2019-02-28T23:19:43.308Z,6.80
2019-02-28T23:22:13.679Z,6.90
2019-02-28T23:24:44.242Z,6.90
2019-02-28T23:27:19.064Z,6.80
2019-02-28T23:30:35.776Z,6.80
2019-02-28T23:33:13.190Z,6.80
2019-02-28T23:35:45.681Z,6.70
2019-02-28T23:38:16.139Z,6.60
2019-02-28T23:40:46.636Z,6.60
2019-02-28T23:43:17.138Z,6.50
2019-02-28T23:45:47.625Z,6.50
2019-02-28T23:48:19.769Z,6.50
2019-02-28T23:50:50.225Z,6.40
2019-02-28T23:53:20.709Z,6.30
2019-02-28T23:55:51.199Z,6.30
2019-02-28T23:58:21.724Z,6.30
